Martin Silva

Olheiro - Defensor Sporting
20 Jan 2028
Quinta-feira
Processo

Personalidade

Adaptabilidade (19) Ambição (3) Controvérsia (14) Lealdade (10) Pressão (10) Profissionalismo (1) Espírito Esportivo (3) Temperamento (11)

Perfil

Estilo de Treinamento Democrático
Licença Continental C
Determinação 4
Gestão de Pessoas 5
Motivação 4
Disciplina 6
Satisfação no Trabalho
100%
Fadiga
0%
Função Olheiro
Salário 85.8K p/s
Contrato 14.03.2030

Desempenho

Comportamento Bom
Eficácia do Treinamento
26%
Desenvolvimento do Jogador
45%
Prevenção de Lesões
40%
Implementação Tática
20%

Eventos Recentes

Participando de desenvolvimento profissional agora
Participou de uma reunião de recrutamento agora
Recomendou um alvo de transferência agora
Recomendou um alvo de transferência agora
Recomendou um alvo de transferência 7d atrás
Recomendou um alvo de transferência 7d atrás
Participando de desenvolvimento profissional 7d atrás
Participando de desenvolvimento profissional 7d atrás

Monitorando agora

193
Jogador Clube Status Habilidade Confiança Observado Última observação Último voto
Ramiro Ruiz Rodríguez Atlético Tucumán Ativo 115 / 120 40% 3 14.12.2027 -
Mateo Coronel Atlético Tucumán Ativo 125 / 128 40% 1 14.12.2027 -
Mao Hosoya Everton Negociando 134 / 135 67% 1 01.12.2027 Aprovar
David Damboama El-Kanemi Warriors Ativo 84 / 100 40% 4 30.11.2027 -
Josh Nichols Tranmere Rovers Ativo 132 / 121 40% 3 30.11.2027 -
Luciano Posadas Central Córdoba SdE Ativo 86 / 92 40% 1 30.11.2027 -
Marvelous Freedom Ikorodu City Ativo 84 / 90 40% 4 29.11.2027 -
Mikkel Hope Haugesund Ativo 95 / 93 40% 4 29.11.2027 -
Lucas Camejo River Plate Ativo 87 / 86 40% 1 29.11.2027 -
Ricky Atletico Venezuela Ativo 94 / 103 40% 3 28.11.2027 -
Onuorah Onyedika Kun Khalifat Ativo 74 / 95 40% 2 28.11.2027 -
Bautista Reinhardt Hrvatski Dragovoljac Ativo 85 / 95 40% 2 27.11.2027 -
Juan Morán Godoy Cruz Ativo 102 / 113 40% 2 27.11.2027 -
Ángel Aguayo Sol de America Ativo 102 / 95 40% 1 27.11.2027 -
Nicolas Sport Recife Ativo 99 / 116 40% 2 26.11.2027 -
Óscar Hinojosa Metropolitanos Ativo 85 / 82 40% 1 26.11.2027 -
Esquerdinha Shrewsbury Town Ativo 124 / 124 40% 1 26.11.2027 -
Jofre Torrents Ajax Ativo 131 / 132 40% 2 23.11.2027 -
Celías Ingenthron Vélez Ativo 120 / 131 40% 4 23.11.2027 -
Tyson Pearce St. Louis CITY SC Ativo 97 / 106 40% 1 23.11.2027 -
Caleb Yirenkyi Coventry City Ativo 147 / 144 40% 2 19.11.2027 -
Agustín Obregón River Plate Ativo 107 / 112 40% 1 19.11.2027 -
Pablo Aguiar Independiente Ativo 104 / 119 40% 1 17.11.2027 -
Diego Vargas San Marcos de Arica Ativo 95 / 102 40% 2 15.11.2027 -
Zahir Ibarra Defensa y Justicia Ativo 102 / 106 40% 2 15.11.2027 -
Ronan Kpakio Cardiff City Ativo 131 / 134 40% 1 15.11.2027 -
Aytor Herrera Zulia Ativo 89 / 95 40% 1 14.11.2027 -
Mauro Carrizo Atlético Tucumán Ativo 109 / 104 40% 4 12.11.2027 -
David Asayure Lokomotivi Ativo 87 / 71 40% 2 11.11.2027 -
Tiago Gordillo San Miguel Ativo 85 / 90 40% 3 11.11.2027 -
Matías Canedo Rampla Juniors Ativo 81 / 88 40% 2 09.11.2027 -
Dylan Gorosito Villarreal Ativo 121 / 129 40% 1 09.11.2027 -
Edmilson Herazo Cortulua Ativo 90 / 101 40% 2 08.11.2027 -
Agustín Medina Valencia Ativo 111 / 125 40% 1 06.11.2027 -
Fillip Jenssen Riise Stabaek Ativo 111 / 116 40% 1 06.11.2027 -
Dominik Chong Qui Atlanta United FC Ativo 95 / 97 40% 1 06.11.2027 -
Mohammed Habib Sarwari Kariobangi Sharks Ativo 80 / 70 40% 3 05.11.2027 -
Samuel Martín Millonarios Ativo 113 / 114 40% 2 05.11.2027 -
Dmitry Pestryakov Dinamo Moscow Ativo 123 / 117 40% 2 04.11.2027 -
Joel Ezra Enyimba Ativo 101 / 106 40% 3 03.11.2027 -
Juan Camilo Córdoba Deportivo Pereira Ativo 84 / 84 40% 2 03.11.2027 -
Samuel Posada Leones Ativo 85 / 94 40% 2 02.11.2027 -
Elkin Rivero Atletico Nacional Ativo 111 / 112 40% 1 01.11.2027 -
Hervin Goyes Deportivo Pasto Ativo 103 / 107 40% 1 30.10.2027 -
Junior Machis Atletico Venezuela Ativo 81 / 83 40% 1 30.10.2027 -
Federico Bonetto River Plate Ativo 79 / 82 40% 1 29.10.2027 -
Thiago Helguera Braga Ativo 132 / 120 40% 1 29.10.2027 -
Mohamed Bolivar Barranquilla Ativo 96 / 94 40% 1 28.10.2027 -
Hian Rincón Once Caldas Ativo 93 / 101 40% 1 26.10.2027 -
Ignacio Fernández Boston River Ativo 95 / 102 40% 1 24.10.2027 -
José Movillo O'Higgins Ativo 89 / 84 40% 1 23.10.2027 -
Jens Hjertø-Dahl Hull City Ativo 138 / 141 40% 1 22.10.2027 -
Matías Gómez Granada Ativo 124 / 133 40% 1 22.10.2027 -
Joelson Gamarra General Caballero Ativo 75 / 70 40% 1 21.10.2027 -
Giovanni Leoni Bradford City Ativo 140 / 152 40% 1 17.10.2027 -
Olaniyi Saheed Kwara United Ativo 85 / 111 40% 1 17.10.2027 -
Declan Frith Peterborough United Ativo 107 / 120 40% 1 29.06.2027 -
Million Manhoef Stoke City Ativo 124 / 141 40% 1 29.06.2027 -
Melker Widell Swansea City Ativo 125 / 116 40% 1 29.06.2027 -
Dion Beljo Standard Liege Negociando 131 / 132 66% 1 01.06.2027 Aprovar
Callum Doyle Wrexham Ativo 120 / 137 40% 5 29.05.2027 -
Josh Edwards Charlton Athletic Ativo 127 / 125 40% 5 29.05.2027 -
Tariq Lamptey Queens Park Rangers Ativo 144 / 128 40% 3 29.05.2027 -
Toby Collyer West Bromwich Albion Ativo 132 / 125 40% 4 27.05.2027 -
Justin Devenny Stoke City Ativo 113 / 125 40% 1 27.05.2027 -
Nobel Mendy Hull City Ativo 123 / 126 40% 1 27.05.2027 -
Darlin Yongwa Norwich City Ativo 135 / 114 40% 2 26.05.2027 -
Andrea Carboni Monza Ativo 125 / 121 40% 3 25.05.2027 -
Ryan Trevitt Cambridge United Ativo 128 / 112 40% 1 25.05.2027 -
Brodie Spencer Oxford United Ativo 127 / 113 40% 1 25.05.2027 -
Williams Manyama SuperSport United Ativo 107 / 104 40% 3 24.05.2027 -
Zak Swanson Bradford City Ativo 118 / 112 40% 4 21.05.2027 -
Jack Currie Oxford United Ativo 117 / 117 40% 3 21.05.2027 -
Jacob Greaves Ipswich Town Ativo 140 / 144 40% 2 21.05.2027 -
Kyle John Port Vale Ativo 110 / 105 40% 3 19.05.2027 -
Derry Murkin Derby County Ativo 119 / 119 40% 6 19.05.2027 -
Idris El Mizouni Leyton Orient Ativo 114 / 114 40% 2 18.05.2027 -
Florentino Luís Ipswich Town Ativo 151 / 152 40% 4 17.05.2027 -
Kane Wilson Milton Keynes Dons Ativo 124 / 114 40% 2 17.05.2027 -
Harry Clarke Preston Ativo 122 / 121 40% 2 17.05.2027 -
Georgie Gent Barnsley Ativo 118 / 113 40% 2 16.05.2027 -
Ilario Monterisi Frosinone Ativo 128 / 136 40% 1 14.05.2027 -
Jay Matete Milton Keynes Dons Ativo 119 / 119 40% 1 11.05.2027 -
Max Bird Birmingham Ativo 139 / 141 40% 6 09.05.2027 -
Nicolas Madsen Queens Park Rangers Ativo 135 / 129 40% 4 09.05.2027 -
Will Fish Cardiff City Ativo 120 / 115 40% 3 09.05.2027 -
Juan Mosquera Sheffield Wednesday Ativo 113 / 118 40% 4 08.05.2027 -
Milan van Ewijk Mansfield Town Ativo 134 / 119 40% 3 08.05.2027 -
Alfie Doughty Millwall Ativo 125 / 123 40% 1 08.05.2027 -
Brian De Keersmaecker Oxford United Ativo 117 / 119 40% 4 05.05.2027 -
Lewis Bate Stockport County Ativo 130 / 118 40% 2 05.05.2027 -
Edoardo Bove Watford Ativo 132 / 123 40% 1 05.05.2027 -
Pelle Mattsson Norwich City Ativo 120 / 136 40% 4 04.05.2027 -
Femi Seriki Sheffield United Ativo 124 / 118 40% 3 04.05.2027 -
Bosun Lawal Stoke City Ativo 134 / 133 40% 1 04.05.2027 -
Jacques Ekomié Wrexham Ativo 128 / 130 40% 1 03.05.2027 -
Kristoffer Lund Birmingham Ativo 133 / 117 40% 3 30.04.2027 -
James Morris Leyton Orient Ativo 107 / 116 40% 2 30.04.2027 -
Nathan Moriah-Welsh Mansfield Town Ativo 113 / 117 40% 1 28.04.2027 -
Caolan Boyd-Munce Wycombe Wanderers Ativo 127 / 111 40% 1 26.04.2027 -
Kellen Fisher Norwich City Ativo 128 / 130 40% 1 26.04.2027 -
Adam Randell Bristol City Ativo 137 / 133 40% 2 24.04.2027 -
Charlie Webster Burton Albion Ativo 103 / 113 40% 3 24.04.2027 -
Mandla Erasmus SuperSport United Ativo 126 / 113 40% 7 23.04.2027 -
Ethan Pye Stockport County Ativo 123 / 124 40% 1 20.04.2027 -
Aaron Morley Wycombe Wanderers Ativo 115 / 123 40% 1 19.04.2027 -
Harvey White Stevenage Ativo 106 / 117 40% 1 18.04.2027 -
Mamadou Sangaré Brentford Ativo 144 / 139 40% 1 15.04.2027 -
Archie Collins Peterborough United Ativo 126 / 121 40% 1 13.04.2027 -
Liam Thompson Mansfield Town Ativo 109 / 128 40% 1 13.04.2027 -
Andrei Coubiş Lincoln City Ativo 125 / 119 40% 1 12.04.2027 -
Ethan Galbraith Swansea City Ativo 135 / 126 40% 3 11.04.2027 -
Bali Mumba Huddersfield Town Ativo 110 / 126 40% 3 10.04.2027 -
Di'Shon Bernard Sheffield Wednesday Ativo 129 / 110 40% 2 09.04.2027 -
Matthew Sorinola Newport County Ativo 115 / 103 40% 1 07.04.2027 -
Josh Tymon Swansea City Ativo 128 / 131 40% 2 03.04.2027 -
Leif Davis Ipswich Town Ativo 140 / 131 40% 2 01.04.2027 -
Teden Mengi Luton Town Ativo 118 / 117 40% 2 31.03.2027 -
Luke McNally Bristol City Ativo 142 / 127 40% 1 20.03.2027 -
Germán González Artigas Ativo 70 / 75 30% 1 / 1m 17.03.2027 -
Álex Centelles Levski Ativo 137 / 117 40% 1 17.03.2027 -
Kutlwano Letlhaku Ajax Cape Town Ativo 127 / 129 40% 1 20.02.2027 -
Hazeem Bakre Crawley Town Ativo 82 / 87 40% 1 20.02.2027 -
Dara O'Shea Ipswich Town Ativo 135 / 139 40% 1 19.02.2027 -
Peter Amidu Acquah Asante Kotoko Ativo 103 / 111 40% 2 18.02.2027 -
Jon Eceizabarrena Real Sociedad Ativo 98 / 99 40% 2 18.02.2027 -
Percy Jali Free State Stars Ativo 99 / 110 40% 1 18.02.2027 -
Rocco Vata Watford Ativo 110 / 112 40% 3 16.02.2027 -
Christ Inao Oulaï Fiorentina Ativo 141 / 135 40% 1 14.02.2027 -
James Dornelly Peterborough United Ativo 112 / 98 40% 1 11.02.2027 -
Gilberto Mora Atlético Madrid Ativo 125 / 128 40% 1 11.02.2027 -
Ilja Vakhania Krasnodar Ativo 110 / 109 40% 1 10.02.2027 -
Filippo Ranocchia Palermo Ativo 125 / 120 40% 1 10.02.2027 -
Riley Owen Trento Ativo 91 / 105 40% 1 08.02.2027 -
Luke Baartman ES Mostaganem Ativo 100 / 115 40% 1 07.02.2027 -
Thiago Szkaluba Korona Ativo 82 / 109 40% 1 07.02.2027 -
Jayden Luker Barnet Ativo 101 / 91 40% 1 04.02.2027 -
Zack Nelson Bromley Ativo 85 / 113 40% 1 03.02.2027 -
Franco Ibarra Rosario Central Ativo 125 / 137 40% 3 29.11.2026 -
Santiago González Tigre Ativo 127 / 127 40% 2 29.11.2026 -
Alexander Díaz Deportivo Riestra Ativo 120 / 125 40% 4 29.11.2026 -
Joaquín Gho Argentinos Juniors Ativo 119 / 117 40% 3 26.11.2026 -
Yuber Quiñónes Deportivo Pereira Ativo 119 / 123 40% 1 25.11.2026 -
Tomás Silva Platense Ativo 120 / 133 40% 1 25.11.2026 -
Gorka Gorosabel Real Sociedad Ativo 110 / 121 40% 1 15.11.2026 -
Alan Lescano Argentinos Juniors Ativo 128 / 123 40% 4 11.11.2026 -
Ignacio Rodríguez Racing Club Ativo 122 / 121 40% 3 11.11.2026 -
César Ibáñez Huracán Ativo 132 / 129 40% 1 08.11.2026 -
Tomás González Piast Ativo 104 / 107 40% 1 08.11.2026 -
Alexis Cuello San Lorenzo Ativo 119 / 125 40% 1 06.11.2026 -
Fernando Martínez Central Córdoba SdE Ativo 126 / 126 40% 1 06.11.2026 -
Santiago Sala Güemes Ativo 107 / 110 40% 1 05.11.2026 -
Aarón Molinas Defensa y Justicia Ativo 121 / 118 40% 1 03.11.2026 -
Adrián Sánchez Belgrano Ativo 123 / 116 40% 1 03.11.2026 -
Christian Krasnodar Ativo 134 / 143 40% 1 03.11.2026 -
Franco Zapiola Platense Ativo 117 / 125 40% 2 31.10.2026 -
Gonzalo Ríos Independiente Rivadavia Ativo 120 / 110 40% 2 31.10.2026 -
Vicente Poggi Godoy Cruz Ativo 131 / 132 40% 1 31.10.2026 -
Sebastián Medina Tigre Ativo 116 / 123 40% 1 30.10.2026 -
Franco Watson Lanús Ativo 118 / 117 40% 1 29.10.2026 -
Augusto Schott Talleres Ativo 123 / 120 40% 1 29.10.2026 -
Alex Vigo Independiente Rivadavia Ativo 117 / 123 40% 1 28.10.2026 -
Jherson Mosquera Newell's Old Boys Ativo 122 / 122 40% 2 27.10.2026 -
Ramiro Hernandes Belgrano Ativo 124 / 121 40% 1 27.10.2026 -
Matías Pellegrini Vélez Ativo 117 / 110 40% 1 25.10.2026 -
Alex Luna Instituto Ativo 133 / 135 40% 1 24.10.2026 -
Gastón Moreyra Almirante Brown Ativo 116 / 119 40% 2 23.10.2026 -
Martín Ortega Newell's Old Boys Ativo 116 / 120 40% 1 21.10.2026 -
Juergen Elitím Bohemians 1905 Ativo 114 / 123 40% 1 21.10.2026 -
Mauro Valiente Estudiantes Ativo 118 / 116 40% 1 20.10.2026 -
Jaminton Campaz Rosario Central Ativo 127 / 127 40% 1 20.10.2026 -
Leandro Lozano Boca Juniors Ativo 131 / 119 40% 1 19.10.2026 -
Felipe Peña Biafore Lanús Ativo 119 / 117 40% 1 18.10.2026 -
Nicolás Retamar Ferro Carril Oeste Ativo 118 / 109 40% 1 10.10.2026 -
Enzo Giménez Queretaro Ativo 125 / 114 40% 1 10.09.2026 -
Luis Romo Guadalajara Ativo 132 / 130 40% 1 10.09.2026 -
Fernando Valenzuela Queretaro Ativo 129 / 130 40% 1 09.09.2026 -
Juan Esteban Ávalo Aguilas Doradas Ativo 105 / 116 40% 1 09.09.2026 -
Jordi Cortizo Leon Ativo 131 / 129 40% 1 09.09.2026 -
Dylan Borrero America de Cali Ativo 116 / 125 40% 1 07.09.2026 -
Paulo Victor Queretaro Ativo 117 / 117 40% 1 07.09.2026 -
Esneyder Mena Deportivo Pasto Ativo 117 / 119 40% 1 07.08.2026 -
Efraín Álvarez Guadalajara Ativo 121 / 130 40% 1 07.08.2026 -
Gonzalo Piovi Cruz Azul Ativo 139 / 131 40% 1 07.08.2026 -
Alan Cervantes Club America Ativo 121 / 116 40% 1 04.08.2026 -
Brian Rodríguez Club America Ativo 132 / 122 40% 1 04.08.2026 -
Santiago Simón Toluca Ativo 119 / 124 40% 1 04.08.2026 -
Freddy Mina La Equidad Ativo 117 / 124 40% 1 03.08.2026 -
José Juan Macías Pumas UNAM Ativo 114 / 116 40% 1 03.08.2026 -
Duk Atlas Ativo 114 / 105 40% 1 03.08.2026 -
Omar Bertel America de Cali Ativo 117 / 111 40% 1 02.08.2026 -
Iker Muñoz Osasuna Ativo 117 / 129 40% 1 02.08.2026 -
Nicolás Ramírez Universidad de Chile Ativo 120 / 124 40% 1 02.08.2026 -